Time;durP1;ratioP1;P1;durP2;ratioP2;P2;SDS_P1;SDS_P2;PMS_P1;PMS_P2;Temp;Humidity;BMP_temperature;BMP_pressure;BME280_temperature;BME280_humidity;BME280_pressure;Samples;Min_cycle;Max_cycle;Signal;HPM_P1;HPM_P2
2024/03/11 00:00:00;;;;;;;0.50;0.40;;;9.40;99.90;;;;;;5074247;28;20202;-81
2024/03/11 00:02:28;;;;;;;0.50;0.40;;;9.30;99.90;;;;;;5073788;28;20782;-82
2024/03/11 00:04:55;;;;;;;0.50;0.40;;;9.40;99.90;;;;;;5073809;28;20681;-81
2024/03/11 00:07:23;;;;;;;0.50;0.40;;;9.40;99.90;;;;;;5074176;28;20492;-82
2024/03/11 00:09:50;;;;;;;0.50;0.50;;;9.40;99.90;;;;;;5074003;28;20546;-81
2024/03/11 00:12:22;;;;;;;0.50;0.40;;;9.40;99.90;;;;;;5073681;28;20241;-81
2024/03/11 00:14:51;;;;;;;0.50;0.40;;;9.30;99.90;;;;;;5084390;28;20732;-83
2024/03/11 00:17:20;;;;;;;1.33;1.23;;;9.30;99.90;;;;;;5087678;28;20241;-82
2024/03/11 00:19:47;;;;;;;0.50;0.40;;;9.30;99.90;;;;;;5085717;28;20672;-83
2024/03/11 00:22:15;;;;;;;3.65;1.90;;;9.20;99.90;;;;;;5078866;28;20198;-83
2024/03/11 00:24:43;;;;;;;0.50;0.40;;;9.20;99.90;;;;;;5078032;28;20692;-83
2024/03/11 00:27:09;;;;;;;0.50;0.40;;;9.10;99.90;;;;;;5079692;28;20230;-82
2024/03/11 00:29:38;;;;;;;0.50;0.40;;;9.10;99.90;;;;;;5080611;28;20210;-83
2024/03/11 00:32:05;;;;;;;0.50;0.40;;;9.10;99.90;;;;;;5077680;28;20439;-82
2024/03/11 00:34:33;;;;;;;0.50;0.40;;;9.00;99.90;;;;;;5076411;28;20194;-82
2024/03/11 00:37:00;;;;;;;1.00;1.00;;;9.00;99.90;;;;;;5075948;28;20206;-82
2024/03/11 00:39:28;;;;;;;0.50;0.40;;;9.00;99.90;;;;;;5074514;28;20224;-81
2024/03/11 00:41:56;;;;;;;0.50;0.40;;;8.90;99.90;;;;;;5075966;28;20276;-82
2024/03/11 00:44:23;;;;;;;0.50;0.40;;;8.90;99.90;;;;;;5075682;28;20202;-82
2024/03/11 00:46:51;;;;;;;0.50;0.40;;;8.90;99.90;;;;;;5075524;28;20230;-82
2024/03/11 00:49:21;;;;;;;0.50;0.40;;;8.80;99.90;;;;;;5074119;28;20210;-81
2024/03/11 00:51:48;;;;;;;0.50;0.40;;;8.90;99.90;;;;;;5075530;28;20202;-82
2024/03/11 00:54:15;;;;;;;0.50;0.40;;;8.80;99.90;;;;;;5075372;28;20191;-81
2024/03/11 00:56:42;;;;;;;0.50;0.40;;;8.80;99.90;;;;;;5077997;28;20261;-83
2024/03/11 00:59:09;;;;;;;0.65;0.65;;;8.80;99.90;;;;;;5082297;28;20781;-83
2024/03/11 01:01:37;;;;;;;0.50;0.50;;;8.70;99.90;;;;;;5082242;28;20285;-83
2024/03/11 01:04:09;;;;;;;0.50;0.50;;;8.70;99.90;;;;;;5081602;28;20221;-83
2024/03/11 01:06:36;;;;;;;0.50;0.40;;;8.70;99.90;;;;;;5081858;28;20217;-83
2024/03/11 01:09:03;;;;;;;0.50;0.50;;;8.70;99.90;;;;;;5081089;28;20487;-83
2024/03/11 01:11:30;;;;;;;0.50;0.40;;;8.60;99.90;;;;;;5081972;28;20221;-83
2024/03/11 01:14:01;;;;;;;0.70;0.70;;;8.60;99.90;;;;;;5081352;28;20194;-83
2024/03/11 01:16:28;;;;;;;1.30;1.23;;;8.60;99.90;;;;;;5080957;28;20211;-82
2024/03/11 01:18:58;;;;;;;1.20;1.20;;;8.60;99.90;;;;;;5081120;28;20214;-83
2024/03/11 01:21:26;;;;;;;0.60;0.40;;;8.60;99.90;;;;;;5081064;28;20198;-83
2024/03/11 01:23:53;;;;;;;0.57;0.57;;;8.60;99.90;;;;;;5081154;28;20198;-83
2024/03/11 01:26:20;;;;;;;0.50;0.40;;;8.60;99.90;;;;;;5081690;28;20293;-83
2024/03/11 01:28:49;;;;;;;0.85;0.77;;;8.60;99.90;;;;;;5080734;28;20214;-83
2024/03/11 01:31:16;;;;;;;0.50;0.40;;;8.50;99.90;;;;;;5081355;28;20233;-83
2024/03/11 01:33:45;;;;;;;0.50;0.40;;;8.50;99.90;;;;;;5080713;28;20194;-83
2024/03/11 01:36:13;;;;;;;0.60;0.60;;;8.40;99.90;;;;;;5081230;28;20451;-82
2024/03/11 01:38:41;;;;;;;2.78;1.05;;;8.40;99.90;;;;;;5080518;28;20211;-83
2024/03/11 01:41:08;;;;;;;2.13;2.03;;;8.40;99.90;;;;;;5080935;28;20205;-82
2024/03/11 01:43:35;;;;;;;0.50;0.40;;;8.40;99.90;;;;;;5080501;28;20576;-83
2024/03/11 01:46:02;;;;;;;3.30;1.85;;;8.40;99.90;;;;;;5081066;28;20195;-83
2024/03/11 01:48:30;;;;;;;0.50;0.40;;;8.40;99.90;;;;;;5079952;28;20218;-83
2024/03/11 01:50:57;;;;;;;0.50;0.40;;;8.30;99.90;;;;;;5080614;28;20201;-83
2024/03/11 01:53:24;;;;;;;5.07;3.13;;;8.40;99.90;;;;;;5080537;28;20433;-82
2024/03/11 01:55:53;;;;;;;0.50;0.40;;;8.40;99.90;;;;;;5080558;28;20698;-82
2024/03/11 01:58:21;;;;;;;0.88;0.88;;;8.40;99.90;;;;;;5080576;28;20214;-83
2024/03/11 02:00:48;;;;;;;0.50;0.40;;;8.40;99.90;;;;;;5080542;28;20194;-82
2024/03/11 02:03:15;;;;;;;0.50;0.40;;;8.40;99.90;;;;;;5079360;28;20289;-83
2024/03/11 02:05:44;;;;;;;0.50;0.40;;;8.40;99.90;;;;;;5082056;28;20325;-82
2024/03/11 02:08:12;;;;;;;8.23;7.75;;;8.40;99.90;;;;;;5078026;28;20219;-83
2024/03/11 02:10:40;;;;;;;0.50;0.40;;;8.40;99.90;;;;;;5077997;28;20681;-81
2024/03/11 02:13:09;;;;;;;0.50;0.50;;;8.30;99.90;;;;;;5078012;28;20198;-83
2024/03/11 02:15:35;;;;;;;0.50;0.40;;;8.30;99.90;;;;;;5076236;28;20195;-83
2024/03/11 02:18:05;;;;;;;0.50;0.40;;;8.30;99.90;;;;;;5077959;28;20222;-82
2024/03/11 02:20:32;;;;;;;0.50;0.40;;;8.30;99.90;;;;;;5077706;28;20664;-82
2024/03/11 02:23:00;;;;;;;0.50;0.40;;;8.40;99.90;;;;;;5077349;28;20572;-83
2024/03/11 02:25:30;;;;;;;0.50;0.50;;;8.40;99.90;;;;;;5077555;28;20676;-83
2024/03/11 02:27:58;;;;;;;1.35;1.25;;;8.30;99.90;;;;;;5076957;28;20701;-82
2024/03/11 02:30:25;;;;;;;1.02;0.93;;;8.30;99.90;;;;;;5076879;28;20194;-82
2024/03/11 02:32:52;;;;;;;0.60;0.50;;;8.30;99.90;;;;;;5077162;28;20201;-83
2024/03/11 02:35:20;;;;;;;0.50;0.50;;;8.30;99.90;;;;;;5076681;28;20194;-83
2024/03/11 02:37:48;;;;;;;0.50;0.40;;;8.20;99.90;;;;;;5077110;28;20219;-84
2024/03/11 02:40:18;;;;;;;0.50;0.40;;;8.30;99.90;;;;;;5076951;28;20190;-82
2024/03/11 02:42:46;;;;;;;0.50;0.40;;;8.20;99.90;;;;;;5076242;28;20437;-82
2024/03/11 02:45:15;;;;;;;0.50;0.40;;;8.30;99.90;;;;;;5076951;28;20440;-82
2024/03/11 02:47:42;;;;;;;0.50;0.40;;;8.30;99.90;;;;;;5076081;28;20225;-82
2024/03/11 02:50:09;;;;;;;0.50;0.40;;;8.30;99.90;;;;;;5075877;28;20476;-82
2024/03/11 02:52:37;;;;;;;0.50;0.40;;;8.30;99.90;;;;;;5075748;28;20201;-82
2024/03/11 02:55:05;;;;;;;4.70;2.55;;;8.20;99.90;;;;;;5076795;28;20194;-81
2024/03/11 02:57:32;;;;;;;0.52;0.52;;;8.20;99.90;;;;;;5074586;28;20214;-81
2024/03/11 03:00:10;;;;;;;1.13;1.13;;;8.10;99.90;;;;;;5076038;28;20209;-81
2024/03/11 03:02:37;;;;;;;0.50;0.50;;;8.00;99.90;;;;;;5075766;28;20201;-81
2024/03/11 03:05:06;;;;;;;5.68;2.28;;;8.00;99.90;;;;;;5075522;28;20195;-82
2024/03/11 03:07:35;;;;;;;4.07;3.65;;;7.90;99.90;;;;;;5073636;28;20305;-82
2024/03/11 03:10:02;;;;;;;2.38;2.17;;;7.90;99.90;;;;;;5075689;28;20210;-82
2024/03/11 03:12:29;;;;;;;0.90;0.90;;;7.80;99.90;;;;;;5075164;28;20492;-81
2024/03/11 03:14:56;;;;;;;1.33;1.33;;;7.80;99.90;;;;;;5075621;28;20554;-82
2024/03/11 03:17:25;;;;;;;0.50;0.50;;;7.80;99.90;;;;;;5075297;28;20225;-82
2024/03/11 03:19:52;;;;;;;0.50;0.40;;;7.80;99.90;;;;;;5075146;28;20565;-81
2024/03/11 03:22:19;;;;;;;0.50;0.40;;;7.90;99.90;;;;;;5074057;28;20198;-81
2024/03/11 03:24:46;;;;;;;0.50;0.40;;;7.90;99.90;;;;;;5075088;28;20198;-81
2024/03/11 03:27:14;;;;;;;0.50;0.40;;;7.90;99.90;;;;;;5074821;28;20276;-81
2024/03/11 03:29:41;;;;;;;0.50;0.40;;;8.00;99.90;;;;;;5074685;28;20561;-82
2024/03/11 03:32:10;;;;;;;0.50;0.40;;;8.00;99.90;;;;;;5074990;28;20236;-81
2024/03/11 03:34:39;;;;;;;0.50;0.40;;;8.10;99.90;;;;;;5074876;28;20197;-81
2024/03/11 03:37:06;;;;;;;0.50;0.40;;;8.10;99.90;;;;;;5075031;28;20350;-81
2024/03/11 03:39:33;;;;;;;0.50;0.40;;;8.10;99.90;;;;;;5074502;28;20198;-82
2024/03/11 03:42:00;;;;;;;0.50;0.40;;;8.20;99.90;;;;;;5074748;28;20194;-81
2024/03/11 03:44:27;;;;;;;0.50;0.40;;;8.20;99.90;;;;;;5077860;28;20437;-81
2024/03/11 03:46:55;;;;;;;0.50;0.40;;;8.20;99.90;;;;;;5071967;28;20203;-82
2024/03/11 03:49:22;;;;;;;0.50;0.40;;;8.20;99.90;;;;;;5070061;28;20221;-83
2024/03/11 03:51:51;;;;;;;0.52;0.40;;;8.20;99.90;;;;;;5077667;28;20236;-83
2024/03/11 03:54:18;;;;;;;2.17;2.05;;;8.20;99.90;;;;;;5076632;28;20201;-82
2024/03/11 03:56:46;;;;;;;0.50;0.40;;;8.20;99.90;;;;;;5076083;28;20204;-82
2024/03/11 03:59:12;;;;;;;0.50;0.40;;;8.20;99.90;;;;;;5074102;28;20183;-81
2024/03/11 04:01:39;;;;;;;0.50;0.40;;;8.30;99.90;;;;;;5069993;28;20209;-81
2024/03/11 04:04:06;;;;;;;0.50;0.40;;;8.30;99.90;;;;;;5059862;28;20194;-82
2024/03/11 04:06:32;;;;;;;0.50;0.40;;;8.30;99.90;;;;;;5058815;28;20194;-82
2024/03/11 04:09:02;;;;;;;0.50;0.50;;;8.30;99.90;;;;;;5057882;28;20250;-81
2024/03/11 04:11:28;;;;;;;0.50;0.40;;;8.30;99.90;;;;;;5064588;28;20203;-81
2024/03/11 04:13:55;;;;;;;0.57;0.57;;;8.30;99.90;;;;;;5061193;28;20198;-81
2024/03/11 04:16:25;;;;;;;1.40;1.40;;;8.30;99.90;;;;;;5061777;28;20194;-82
2024/03/11 04:18:52;;;;;;;0.70;0.70;;;8.40;99.90;;;;;;5059017;28;20226;-81
2024/03/11 04:21:19;;;;;;;5.20;3.42;;;8.40;99.90;;;;;;5067495;28;20194;-81
2024/03/11 04:23:46;;;;;;;0.50;0.40;;;8.40;99.90;;;;;;5056467;28;20225;-81
2024/03/11 04:26:14;;;;;;;0.50;0.40;;;8.50;99.90;;;;;;5063103;28;20240;-81
2024/03/11 04:28:43;;;;;;;0.95;0.95;;;8.40;99.90;;;;;;5055533;28;20218;-81
2024/03/11 04:31:10;;;;;;;1.60;1.55;;;8.40;99.90;;;;;;5054809;28;20187;-81
2024/03/11 04:33:37;;;;;;;4.40;4.18;;;8.40;99.90;;;;;;5055415;28;20221;-81
2024/03/11 04:36:04;;;;;;;0.50;0.50;;;8.30;99.90;;;;;;5061087;28;20665;-81
2024/03/11 04:38:30;;;;;;;1.20;1.20;;;8.30;99.90;;;;;;5067033;28;20218;-81
2024/03/11 04:40:57;;;;;;;0.50;0.50;;;8.30;99.90;;;;;;5062478;28;20456;-81
2024/03/11 04:43:26;;;;;;;2.92;2.83;;;8.30;99.90;;;;;;5058522;28;20199;-82
2024/03/11 04:45:53;;;;;;;2.08;1.95;;;8.30;99.90;;;;;;5055545;28;20199;-82
2024/03/11 04:48:20;;;;;;;0.50;0.50;;;8.20;99.90;;;;;;5055069;28;20745;-82
2024/03/11 04:50:47;;;;;;;3.08;2.97;;;8.20;99.90;;;;;;5056750;28;20226;-82
2024/03/11 04:53:17;;;;;;;0.50;0.40;;;8.20;99.90;;;;;;5056642;28;20222;-81
2024/03/11 04:55:45;;;;;;;0.50;0.40;;;8.20;99.90;;;;;;5056520;28;20245;-81
2024/03/11 04:58:12;;;;;;;4.13;1.10;;;8.20;99.90;;;;;;5055638;28;20211;-81
2024/03/11 05:00:41;;;;;;;2.63;2.45;;;8.20;99.90;;;;;;5055782;28;20574;-80
2024/03/11 05:03:08;;;;;;;8.65;4.20;;;8.20;99.90;;;;;;5055473;28;20222;-81
2024/03/11 05:05:35;;;;;;;8.85;7.97;;;8.30;99.90;;;;;;5055000;28;20206;-82
2024/03/11 05:08:04;;;;;;;1.67;1.58;;;8.30;99.90;;;;;;5055524;28;20257;-81
2024/03/11 05:10:31;;;;;;;1.88;1.55;;;8.30;99.90;;;;;;5055365;28;20362;-81
2024/03/11 05:12:58;;;;;;;3.47;2.00;;;8.30;99.90;;;;;;5054147;28;20652;-81
2024/03/11 05:15:26;;;;;;;0.50;0.40;;;8.30;99.90;;;;;;5055273;28;20201;-81
2024/03/11 05:17:54;;;;;;;6.38;5.45;;;8.30;99.90;;;;;;5055343;28;20293;-81
2024/03/11 05:20:20;;;;;;;1.40;1.40;;;8.30;99.90;;;;;;5054812;28;20219;-81
2024/03/11 05:22:49;;;;;;;4.88;4.20;;;8.30;99.90;;;;;;5054683;28;20194;-81
2024/03/11 05:25:16;;;;;;;3.17;2.95;;;8.30;99.90;;;;;;5054835;28;20198;-81
2024/03/11 05:27:44;;;;;;;0.50;0.40;;;8.30;99.90;;;;;;5054619;28;20231;-82
2024/03/11 05:30:12;;;;;;;0.50;0.40;;;8.30;99.90;;;;;;5054306;28;20743;-81
2024/03/11 05:32:37;;;;;;;0.70;0.70;;;8.30;99.90;;;;;;5054129;28;20201;-81
2024/03/11 05:35:06;;;;;;;4.97;4.47;;;8.30;99.90;;;;;;5054022;28;20191;-81
2024/03/11 05:37:34;;;;;;;4.50;4.25;;;8.30;99.90;;;;;;5059099;28;20219;-83
2024/03/11 05:40:05;;;;;;;1.77;1.67;;;8.30;99.90;;;;;;5060097;28;20192;-82
2024/03/11 05:42:32;;;;;;;1.35;1.35;;;8.30;99.90;;;;;;5058728;28;20191;-83
2024/03/11 05:44:59;;;;;;;0.50;0.40;;;8.40;99.90;;;;;;5060355;28;20199;-82
2024/03/11 05:47:27;;;;;;;6.88;6.25;;;8.30;99.90;;;;;;5060789;28;20225;-83
2024/03/11 05:49:54;;;;;;;0.50;0.47;;;8.30;99.90;;;;;;5060196;28;20777;-83
2024/03/11 05:52:25;;;;;;;2.25;2.08;;;8.30;99.90;;;;;;5059896;28;20206;-83
2024/03/11 05:54:52;;;;;;;0.60;0.40;;;8.30;99.90;;;;;;5059094;28;20217;-83
2024/03/11 05:57:23;;;;;;;0.50;0.40;;;8.30;99.90;;;;;;5060364;28;20215;-83
2024/03/11 05:59:51;;;;;;;13.27;10.20;;;8.30;99.90;;;;;;5059559;28;20191;-83
2024/03/11 06:02:18;;;;;;;0.50;0.40;;;8.30;99.90;;;;;;5060254;28;20199;-83
2024/03/11 06:04:45;;;;;;;8.23;3.95;;;8.30;99.90;;;;;;5061164;28;20191;-84
2024/03/11 06:07:14;;;;;;;5.28;5.00;;;8.30;99.90;;;;;;5062548;28;20310;-83
2024/03/11 06:09:42;;;;;;;5.18;4.20;;;8.40;99.90;;;;;;5060405;28;20218;-84
2024/03/11 06:12:11;;;;;;;1.55;1.45;;;8.30;99.90;;;;;;5060364;28;20195;-84
2024/03/11 06:14:38;;;;;;;0.77;0.77;;;8.30;99.90;;;;;;5059284;28;20780;-84
2024/03/11 06:17:07;;;;;;;5.07;4.70;;;8.30;99.90;;;;;;5059593;28;20219;-83
2024/03/11 06:19:33;;;;;;;1.23;1.23;;;8.40;99.90;;;;;;5058897;28;20578;-84
2024/03/11 06:22:00;;;;;;;0.50;0.50;;;8.40;99.90;;;;;;5058937;28;20203;-84
2024/03/11 06:24:28;;;;;;;0.50;0.40;;;8.30;99.90;;;;;;5060827;28;20190;-84
2024/03/11 06:26:57;;;;;;;8.60;5.00;;;8.30;99.90;;;;;;5060854;28;20449;-85
2024/03/11 06:29:26;;;;;;;1.30;1.20;;;8.30;99.90;;;;;;5060277;28;20525;-84
2024/03/11 06:31:55;;;;;;;0.55;0.55;;;8.40;99.90;;;;;;5059445;28;20201;-84
2024/03/11 06:34:23;;;;;;;2.53;2.42;;;8.40;99.90;;;;;;5060267;28;20217;-83
2024/03/11 06:36:50;;;;;;;0.50;0.50;;;8.40;99.90;;;;;;5057234;28;20231;-82
2024/03/11 06:39:18;;;;;;;2.00;1.77;;;8.40;99.90;;;;;;5058862;28;20670;-85
2024/03/11 06:41:45;;;;;;;1.33;1.27;;;8.40;99.90;;;;;;5058293;28;20203;-84
2024/03/11 06:44:13;;;;;;;0.50;0.45;;;8.40;99.90;;;;;;5057881;28;20929;-84
2024/03/11 06:46:40;;;;;;;0.60;0.60;;;8.40;99.90;;;;;;5058076;28;20229;-85
2024/03/11 06:49:08;;;;;;;0.50;0.40;;;8.40;99.90;;;;;;5058321;28;20219;-84
2024/03/11 06:51:35;;;;;;;2.25;2.05;;;8.40;99.90;;;;;;5058933;28;20214;-84
2024/03/11 06:54:01;;;;;;;1.25;1.15;;;8.40;99.90;;;;;;5060127;28;20195;-84
2024/03/11 06:56:30;;;;;;;8.23;6.93;;;8.40;99.90;;;;;;5059598;28;20202;-84
2024/03/11 06:58:58;;;;;;;0.57;0.55;;;8.40;99.90;;;;;;5057655;28;20219;-84
2024/03/11 07:01:27;;;;;;;0.60;0.52;;;8.40;99.90;;;;;;5058133;28;20187;-84
2024/03/11 07:03:55;;;;;;;11.18;2.95;;;8.30;99.90;;;;;;5058422;28;20642;-85
2024/03/11 07:06:22;;;;;;;0.65;0.65;;;8.30;99.90;;;;;;5058419;28;20661;-83
2024/03/11 07:08:51;;;;;;;0.50;0.40;;;8.30;99.90;;;;;;5057049;28;20215;-84
2024/03/11 07:11:18;;;;;;;1.00;1.00;;;8.30;99.90;;;;;;5057489;28;20252;-84
2024/03/11 07:13:44;;;;;;;1.33;1.23;;;8.30;99.90;;;;;;5057579;28;20199;-82
2024/03/11 07:16:12;;;;;;;3.33;3.13;;;8.30;99.90;;;;;;5058005;28;20195;-82
2024/03/11 07:18:42;;;;;;;0.50;0.40;;;8.30;99.90;;;;;;5060928;28;20211;-82
2024/03/11 07:21:11;;;;;;;4.63;1.95;;;8.30;99.90;;;;;;5072993;28;20225;-81
2024/03/11 07:23:38;;;;;;;5.72;5.28;;;8.30;99.90;;;;;;5074486;28;20201;-81
2024/03/11 07:26:05;;;;;;;5.20;4.97;;;8.20;99.90;;;;;;5068119;28;20202;-83
2024/03/11 07:28:34;;;;;;;1.77;1.67;;;8.20;99.90;;;;;;5060868;28;20223;-84
2024/03/11 07:31:01;;;;;;;0.50;0.40;;;8.20;99.90;;;;;;5060229;28;20770;-84
2024/03/11 07:33:28;;;;;;;9.02;8.27;;;8.20;99.90;;;;;;5059535;28;20583;-83
2024/03/11 07:35:57;;;;;;;1.25;1.25;;;8.30;99.90;;;;;;5060003;28;20198;-84
2024/03/11 07:38:25;;;;;;;4.20;1.98;;;8.20;99.90;;;;;;5058441;28;20705;-83
2024/03/11 07:40:52;;;;;;;10.52;4.53;;;8.20;99.90;;;;;;5057383;28;20197;-83
2024/03/11 07:43:19;;;;;;;0.63;0.63;;;8.30;99.90;;;;;;5056227;28;20249;-83
2024/03/11 07:45:46;;;;;;;0.50;0.40;;;8.30;99.90;;;;;;5057657;28;20206;-84
2024/03/11 07:48:14;;;;;;;0.50;0.40;;;8.20;99.90;;;;;;5057396;28;20250;-83
2024/03/11 07:50:42;;;;;;;0.60;0.60;;;8.30;99.90;;;;;;5060546;28;20226;-84
2024/03/11 07:53:12;;;;;;;0.50;0.50;;;8.30;99.90;;;;;;5057914;28;20203;-83
2024/03/11 07:55:40;;;;;;;0.60;0.60;;;8.30;99.90;;;;;;5056430;28;20202;-82
2024/03/11 07:58:11;;;;;;;3.15;2.80;;;8.30;99.90;;;;;;5057060;28;20215;-83
2024/03/11 08:00:38;;;;;;;5.13;3.42;;;8.40;99.90;;;;;;5070869;28;20221;-83
2024/03/11 08:03:06;;;;;;;0.50;0.50;;;8.30;99.90;;;;;;5071675;28;20195;-83
2024/03/11 08:05:34;;;;;;;6.82;6.25;;;8.30;99.90;;;;;;5074184;28;20195;-82
2024/03/11 08:08:01;;;;;;;3.58;3.40;;;8.30;99.90;;;;;;5076112;28;20263;-83
2024/03/11 08:10:29;;;;;;;0.50;0.40;;;8.20;99.90;;;;;;5076328;28;20210;-83
2024/03/11 08:12:56;;;;;;;0.50;0.40;;;8.20;99.90;;;;;;5076221;28;20201;-84
2024/03/11 08:15:23;;;;;;;2.55;2.35;;;8.20;99.90;;;;;;5060516;28;20203;-83
2024/03/11 08:17:51;;;;;;;1.63;1.52;;;8.20;99.90;;;;;;5060374;28;20302;-83
2024/03/11 08:20:20;;;;;;;3.85;3.65;;;8.20;99.90;;;;;;5069204;28;20661;-84
2024/03/11 08:22:48;;;;;;;0.50;0.40;;;8.20;99.90;;;;;;5056395;28;20227;-83
2024/03/11 08:25:16;;;;;;;1.05;1.05;;;8.20;99.90;;;;;;5062327;28;20229;-82
2024/03/11 08:27:44;;;;;;;1.23;1.23;;;8.20;99.90;;;;;;5075191;28;20325;-83
2024/03/11 08:30:12;;;;;;;4.70;4.32;;;8.20;99.90;;;;;;5069143;28;20211;-83
2024/03/11 08:32:42;;;;;;;0.50;0.40;;;8.20;99.90;;;;;;5056449;28;20217;-84
2024/03/11 08:35:09;;;;;;;1.60;1.50;;;8.30;99.90;;;;;;5064850;28;20195;-85
2024/03/11 08:37:37;;;;;;;2.25;0.95;;;8.30;99.90;;;;;;5074920;28;20570;-83
2024/03/11 08:40:08;;;;;;;0.50;0.50;;;8.30;99.90;;;;;;5077344;28;20198;-83
2024/03/11 08:42:35;;;;;;;5.43;3.38;;;8.30;99.90;;;;;;5077752;28;20619;-83
2024/03/11 08:45:04;;;;;;;4.65;4.20;;;8.30;99.90;;;;;;5062961;28;20195;-83
2024/03/11 08:47:31;;;;;;;3.60;3.33;;;8.30;99.90;;;;;;5058070;28;20265;-82
2024/03/11 08:49:58;;;;;;;2.15;2.05;;;8.30;99.90;;;;;;5060448;28;20198;-83
2024/03/11 08:52:27;;;;;;;8.95;6.70;;;8.40;99.90;;;;;;5062685;28;20203;-83
2024/03/11 08:54:54;;;;;;;3.88;3.67;;;8.40;99.90;;;;;;5072272;28;20726;-82
2024/03/11 08:57:22;;;;;;;3.03;2.92;;;8.30;99.90;;;;;;5075001;28;20217;-84
2024/03/11 08:59:49;;;;;;;0.50;0.40;;;8.30;99.90;;;;;;5078724;28;20194;-84
2024/03/11 09:02:18;;;;;;;2.75;1.75;;;8.30;99.90;;;;;;5080766;28;20201;-83
2024/03/11 09:04:46;;;;;;;10.77;4.60;;;8.30;99.90;;;;;;5077854;28;20214;-83
2024/03/11 09:07:13;;;;;;;2.88;0.80;;;8.30;99.90;;;;;;5079191;28;20269;-82
2024/03/11 09:09:40;;;;;;;2.33;2.22;;;8.20;99.90;;;;;;5078747;28;20194;-83
2024/03/11 09:12:09;;;;;;;0.50;0.50;;;8.20;99.90;;;;;;5077743;28;20225;-82
2024/03/11 09:14:36;;;;;;;1.83;1.73;;;8.30;99.90;;;;;;5078403;28;20665;-83
2024/03/11 09:17:04;;;;;;;0.85;0.82;;;8.40;99.90;;;;;;5079133;28;20202;-83
2024/03/11 09:19:33;;;;;;;0.50;0.50;;;8.50;99.90;;;;;;5078040;28;20203;-83
2024/03/11 09:22:02;;;;;;;2.55;2.45;;;8.50;99.90;;;;;;5080898;28;20194;-83
2024/03/11 09:24:29;;;;;;;4.13;3.85;;;8.50;99.90;;;;;;5090813;28;20201;-82
2024/03/11 09:26:56;;;;;;;9.23;8.52;;;8.50;99.90;;;;;;5091436;28;20206;-82
2024/03/11 09:29:24;;;;;;;5.28;4.95;;;8.50;99.90;;;;;;5077546;28;20206;-82
2024/03/11 09:31:52;;;;;;;12.77;6.57;;;8.50;99.90;;;;;;5075205;28;20215;-82
2024/03/11 09:34:19;;;;;;;0.50;0.40;;;8.50;99.90;;;;;;5074131;28;20201;-83
2024/03/11 09:36:47;;;;;;;7.78;4.85;;;8.50;99.90;;;;;;5074553;28;20198;-84
2024/03/11 09:39:15;;;;;;;15.10;12.80;;;8.50;99.90;;;;;;5074783;28;20194;-83
2024/03/11 09:41:44;;;;;;;3.65;3.45;;;8.40;99.90;;;;;;5077588;28;20289;-82
2024/03/11 09:44:15;;;;;;;8.15;5.93;;;8.40;99.90;;;;;;5074978;28;20194;-81
2024/03/11 09:46:43;;;;;;;8.32;7.68;;;8.30;99.90;;;;;;5074928;28;20222;-82
2024/03/11 09:49:11;;;;;;;6.45;5.47;;;8.30;99.90;;;;;;5074884;28;20234;-83
2024/03/11 09:51:39;;;;;;;0.95;0.95;;;8.30;99.90;;;;;;5061957;28;20219;-83
2024/03/11 09:54:10;;;;;;;2.28;1.70;;;8.20;99.90;;;;;;5066695;28;20198;-83
2024/03/11 09:56:36;;;;;;;17.90;7.22;;;8.30;99.90;;;;;;5070056;28;20230;-82
2024/03/11 09:59:09;;;;;;;2.80;2.60;;;8.20;99.90;;;;;;5073229;28;20211;-83
2024/03/11 10:01:42;;;;;;;8.68;5.13;;;8.20;99.90;;;;;;5071172;28;20197;-84
2024/03/11 10:04:12;;;;;;;12.43;7.38;;;8.20;99.90;;;;;;5075773;28;20199;-84
2024/03/11 10:06:40;;;;;;;8.18;6.68;;;8.20;99.90;;;;;;5064087;28;20206;-82
2024/03/11 10:09:18;;;;;;;22.13;11.35;;;8.20;99.90;;;;;;5079624;28;20237;-83
2024/03/11 10:12:01;;;;;;;34.38;15.60;;;8.20;99.90;;;;;;5071074;28;20281;-83
2024/03/11 10:14:31;;;;;;;7.93;7.25;;;8.10;99.90;;;;;;5071670;28;20215;-82
2024/03/11 10:17:20;;;;;;;14.43;11.38;;;8.10;99.90;;;;;;5070164;28;20187;-83
2024/03/11 10:19:47;;;;;;;29.83;13.65;;;8.10;99.90;;;;;;5079380;28;20248;-83
2024/03/11 10:22:22;;;;;;;4.38;2.97;;;8.10;99.90;;;;;;5078341;28;20282;-83
2024/03/11 10:24:52;;;;;;;13.50;9.25;;;8.10;99.90;;;;;;5076363;28;20618;-83
2024/03/11 10:27:20;;;;;;;8.27;5.07;;;8.10;99.90;;;;;;5059502;28;20219;-83
2024/03/11 10:29:46;;;;;;;3.03;2.22;;;8.10;99.90;;;;;;5067706;28;20195;-83
2024/03/11 10:32:34;;;;;;;6.53;5.97;;;8.10;99.90;;;;;;5059264;28;20215;-83
2024/03/11 10:35:01;;;;;;;5.25;3.75;;;8.10;99.90;;;;;;5058855;28;20221;-83
2024/03/11 10:37:29;;;;;;;5.60;5.30;;;8.10;99.90;;;;;;5057509;28;20234;-83
2024/03/11 10:39:59;;;;;;;6.05;4.95;;;8.20;99.90;;;;;;5058677;28;20195;-82
2024/03/11 10:42:28;;;;;;;7.88;7.05;;;8.10;99.90;;;;;;5057122;28;20191;-83
2024/03/11 10:44:57;;;;;;;6.28;5.75;;;8.10;99.90;;;;;;5061698;28;20199;-82
2024/03/11 10:47:28;;;;;;;0.50;0.40;;;8.20;99.90;;;;;;5065010;28;20230;-84
2024/03/11 10:49:58;;;;;;;2.00;1.80;;;8.20;99.90;;;;;;5059884;28;20253;-82
2024/03/11 10:52:25;;;;;;;6.50;3.72;;;8.30;99.90;;;;;;5058202;28;20264;-82
2024/03/11 10:54:55;;;;;;;1.35;1.35;;;8.30;99.90;;;;;;5058438;28;20669;-83
2024/03/11 10:57:31;;;;;;;3.03;2.83;;;8.40;99.90;;;;;;5060045;28;20222;-82
2024/03/11 10:59:59;;;;;;;0.52;0.50;;;8.40;99.90;;;;;;5058849;28;20232;-82
2024/03/11 11:02:32;;;;;;;0.70;0.60;;;8.40;99.90;;;;;;5061345;28;20198;-82
2024/03/11 11:05:05;;;;;;;3.88;3.60;;;8.50;99.90;;;;;;5071616;28;20199;-82
2024/03/11 11:07:33;;;;;;;0.70;0.70;;;8.40;99.90;;;;;;5073097;28;20226;-81
2024/03/11 11:10:01;;;;;;;0.50;0.40;;;8.20;99.90;;;;;;5064780;28;20574;-84
2024/03/11 11:12:30;;;;;;;2.38;1.55;;;8.20;99.90;;;;;;5060072;28;20215;-83
2024/03/11 11:15:00;;;;;;;6.50;4.93;;;8.20;99.90;;;;;;5066152;28;20234;-83
2024/03/11 11:17:29;;;;;;;7.68;2.95;;;8.20;99.90;;;;;;5057059;28;20238;-84
2024/03/11 11:19:57;;;;;;;1.67;1.58;;;8.20;99.90;;;;;;5058780;28;20598;-82
2024/03/11 11:22:28;;;;;;;7.22;3.85;;;8.30;99.90;;;;;;5067626;28;20258;-86
2024/03/11 11:24:55;;;;;;;3.25;3.05;;;8.40;99.90;;;;;;5057218;28;20625;-78
2024/03/11 11:27:27;;;;;;;4.65;4.15;;;8.30;99.90;;;;;;5054390;28;20227;-75
2024/03/11 11:30:14;;;;;;;11.10;9.27;;;8.30;99.90;;;;;;5065345;28;20204;-77
2024/03/11 11:32:42;;;;;;;2.55;1.25;;;8.40;99.90;;;;;;5056582;28;20222;-83
2024/03/11 11:35:13;;;;;;;5.63;4.97;;;8.50;99.90;;;;;;5064025;28;20234;-82
2024/03/11 11:37:40;;;;;;;10.68;6.25;;;8.40;99.90;;;;;;5071805;28;20210;-84
2024/03/11 11:40:26;;;;;;;15.80;7.55;;;8.20;99.90;;;;;;5072071;28;20221;-82
2024/03/11 11:42:55;;;;;;;6.18;5.18;;;8.20;99.90;;;;;;5061898;28;20194;-82
2024/03/11 11:45:56;;;;;;;4.97;4.30;;;8.30;99.90;;;;;;5070326;28;20253;-82
2024/03/11 11:48:30;;;;;;;3.75;3.45;;;8.30;99.90;;;;;;5074506;28;20221;-83
2024/03/11 11:50:59;;;;;;;5.22;4.97;;;8.30;99.90;;;;;;5071508;28;20204;-83
2024/03/11 11:53:29;;;;;;;3.08;2.95;;;8.20;99.90;;;;;;5072256;28;20256;-83
2024/03/11 11:55:57;;;;;;;14.82;6.80;;;8.20;99.90;;;;;;5081159;28;20194;-83
2024/03/11 11:58:28;;;;;;;14.75;8.35;;;8.10;99.90;;;;;;5068971;28;20605;-82
2024/03/11 12:01:01;;;;;;;4.43;4.13;;;8.10;99.90;;;;;;5072101;28;20194;-83
2024/03/11 12:03:34;;;;;;;2.28;2.15;;;8.10;99.90;;;;;;5069961;28;20198;-83
2024/03/11 12:06:04;;;;;;;13.63;9.05;;;8.00;99.90;;;;;;5077684;28;20194;-83
2024/03/11 12:08:32;;;;;;;18.73;10.32;;;8.00;99.90;;;;;;5077027;28;20234;-84
2024/03/11 12:11:19;;;;;;;16.50;7.90;;;8.00;99.90;;;;;;5077621;28;20217;-83
2024/03/11 12:13:46;;;;;;;19.70;11.45;;;8.00;99.90;;;;;;5077268;28;20198;-82
2024/03/11 12:16:23;;;;;;;12.43;10.32;;;8.00;99.90;;;;;;5076912;28;20195;-83
2024/03/11 12:19:01;;;;;;;8.10;5.97;;;8.00;99.90;;;;;;5076899;28;20216;-82
2024/03/11 12:21:29;;;;;;;6.85;5.22;;;7.90;99.90;;;;;;5078344;28;20194;-82
2024/03/11 12:23:56;;;;;;;6.72;3.28;;;7.90;99.90;;;;;;5081191;28;20198;-82
2024/03/11 12:26:26;;;;;;;4.75;3.20;;;8.00;99.90;;;;;;5080478;28;20186;-83
2024/03/11 12:29:05;;;;;;;4.72;4.07;;;8.00;99.90;;;;;;5065093;28;20218;-82
2024/03/11 12:31:35;;;;;;;12.30;3.00;;;8.00;99.90;;;;;;5080748;28;20336;-82
2024/03/11 12:34:06;;;;;;;18.80;8.80;;;8.00;99.90;;;;;;5079984;28;20221;-83
2024/03/11 12:36:34;;;;;;;9.32;8.73;;;7.90;99.90;;;;;;5080552;28;20201;-82
2024/03/11 12:39:02;;;;;;;1.23;1.13;;;7.90;99.90;;;;;;5071561;28;20214;-83
2024/03/11 12:41:40;;;;;;;5.35;4.85;;;7.90;99.90;;;;;;5063230;28;20205;-82
2024/03/11 12:44:12;;;;;;;4.10;3.13;;;7.90;99.90;;;;;;5065480;28;20237;-82
2024/03/11 12:46:41;;;;;;;12.98;8.40;;;7.80;99.90;;;;;;5079344;28;20201;-83
2024/03/11 12:49:12;;;;;;;17.98;9.00;;;7.80;99.90;;;;;;5078572;28;20611;-83
2024/03/11 12:51:39;;;;;;;18.92;10.73;;;7.80;99.90;;;;;;5079764;28;20210;-83
2024/03/11 12:54:18;;;;;;;11.30;6.68;;;7.80;99.90;;;;;;5079655;28;20198;-81
2024/03/11 12:56:51;;;;;;;24.15;6.40;;;7.80;99.90;;;;;;5080237;28;20292;-81
2024/03/11 12:59:18;;;;;;;25.33;14.43;;;7.80;99.90;;;;;;5078744;28;20195;-83
2024/03/11 13:01:46;;;;;;;5.35;5.05;;;7.80;99.90;;;;;;5079248;28;20194;-83